PWSweather.com
Personal Weather Stations
Station Observations
TORPERJOSANG
Carretera De Villel SN , MochalesES 19332

Carretera De Villel SN MochalesES 19332

Lat: 41.09957, Lon: -2.012569

Elevation: 3215

Station Type: PSW-20

http://www.torresp.com

High Low Average
Temperature 78.6°F25.9°C 45.9°F7.7°C 61.4°F16.3°C
Dew Point 54.9°F12.7°C 42.9°F6.1°C 47.1°F8.4°C
Winds 13.8 mph 22.2 kmh Calm Calm 4.0 mph W6.4 kmh W
Wind Gusts 18.4 mph29.6 kmh -- 7.0 mph11.3 kmh
Humidity 97% 29% 65%
Pressure 30.12 in1020.0 mb 30.00 in1015.9 mb -
Precipitation 0.00 in0.0 mm - -
Hour Temp Dew Point Humidity Winds Wind Gusts Pressure Precip Precip Rate Daily Precip Total
12:00 AM 50.9°F10.5°C 46.6°F8.1°C 85% 4.6 mph W7.4 kmh W 5.8 mph9.3 kmh 30.06 in1017.9 mb - 0.00 in0.0 mm 0.00 in0.0 mm
12:10 AM 50.9°F10.5°C 46.6°F8.1°C 85% 2.3 mph NW3.7 kmh NW 4.6 mph7.4 kmh 30.09 in1019.0 mb - 0.00 in0.0 mm 0.00 in0.0 mm
12:15 AM 50.9°F10.5°C 46.6°F8.1°C 85% 3.5 mph W5.6 kmh W 4.6 mph7.4 kmh 30.09 in1019.0 mb - 0.00 in0.0 mm 0.00 in0.0 mm
12:20 AM 50.7°F10.4°C 46.4°F8.0°C 85% 4.6 mph W7.4 kmh W 5.8 mph9.3 kmh 30.09 in1019.0 mb - 0.00 in0.0 mm 0.00 in0.0 mm
12:25 AM 50.6°F10.3°C 46.2°F7.9°C 85% 4.6 mph W7.4 kmh W 5.8 mph9.3 kmh 30.09 in1019.0 mb - 0.00 in0.0 mm 0.00 in0.0 mm
12:30 AM 50.5°F10.3°C 46.5°F8.1°C 86% 6.9 mph W11.1 kmh W 8.1 mph13.0 kmh 30.09 in1019.0 mb - 0.00 in0.0 mm 0.00 in0.0 mm
12:35 AM 50.4°F10.2°C 46.3°F7.9°C 86% 3.5 mph SW5.6 kmh SW 8.1 mph13.0 kmh 30.09 in1019.0 mb - 0.00 in0.0 mm 0.00 in0.0 mm
12:40 AM 50.2°F10.1°C 46.2°F7.9°C 86% 5.8 mph NW9.3 kmh NW 8.1 mph13.0 kmh 30.09 in1019.0 mb - 0.00 in0.0 mm 0.00 in0.0 mm
12:45 AM 50.0°F10.0°C 46.0°F7.8°C 86% 4.6 mph W7.4 kmh W 6.9 mph11.1 kmh 30.09 in1019.0 mb - 0.00 in0.0 mm 0.00 in0.0 mm
12:50 AM 50.4°F10.2°C 46.6°F8.1°C 87% 6.9 mph NW11.1 kmh NW 8.1 mph13.0 kmh 30.09 in1019.0 mb - 0.00 in0.0 mm 0.00 in0.0 mm
12:55 AM 50.5°F10.3°C 46.8°F8.2°C 87% 5.8 mph NW9.3 kmh NW 6.9 mph11.1 kmh 30.09 in1019.0 mb - 0.00 in0.0 mm 0.00 in0.0 mm
01:00 AM 50.5°F10.3°C 46.8°F8.2°C 87% 6.9 mph W11.1 kmh W 8.1 mph13.0 kmh 30.09 in1019.0 mb - 0.00 in0.0 mm 0.00 in0.0 mm
01:10 AM 50.5°F10.3°C 46.8°F8.2°C 87% 5.8 mph W9.3 kmh W 8.1 mph13.0 kmh 30.09 in1019.0 mb - 0.00 in0.0 mm 0.00 in0.0 mm
01:15 AM 50.4°F10.2°C 46.6°F8.1°C 87% 5.8 mph W9.3 kmh W 8.1 mph13.0 kmh 30.09 in1019.0 mb - 0.00 in0.0 mm 0.00 in0.0 mm
01:20 AM 50.4°F10.2°C 46.6°F8.1°C 87% 4.6 mph NW7.4 kmh NW 5.8 mph9.3 kmh 30.09 in1019.0 mb - 0.00 in0.0 mm 0.00 in0.0 mm
01:25 AM 50.4°F10.2°C 46.6°F8.1°C 87% 3.5 mph NW5.6 kmh NW 6.9 mph11.1 kmh 30.09 in1019.0 mb - 0.00 in0.0 mm 0.00 in0.0 mm
01:30 AM 50.4°F10.2°C 46.6°F8.1°C 87% 3.5 mph W5.6 kmh W 5.8 mph9.3 kmh 30.09 in1019.0 mb - 0.00 in0.0 mm 0.00 in0.0 mm
01:35 AM 50.4°F10.2°C 46.6°F8.1°C 87% 4.6 mph WSW7.4 kmh WSW 5.8 mph9.3 kmh 30.09 in1019.0 mb - 0.00 in0.0 mm 0.00 in0.0 mm
01:40 AM 50.0°F10.0°C 46.3°F7.9°C 87% 5.8 mph W9.3 kmh W 6.9 mph11.1 kmh 30.09 in1019.0 mb - 0.00 in0.0 mm 0.00 in0.0 mm
01:45 AM 49.8°F9.9°C 46.4°F8.0°C 88% 3.5 mph SW5.6 kmh SW 5.8 mph9.3 kmh 30.09 in1019.0 mb - 0.00 in0.0 mm 0.00 in0.0 mm
01:50 AM 49.5°F9.7°C 45.8°F7.7°C 87% 3.5 mph W5.6 kmh W 3.5 mph5.6 kmh 30.09 in1019.0 mb - 0.00 in0.0 mm 0.00 in0.0 mm
01:55 AM 49.3°F9.6°C 45.9°F7.7°C 88% 2.3 mph WSW3.7 kmh WSW 3.5 mph5.6 kmh 30.09 in1019.0 mb - 0.00 in0.0 mm 0.00 in0.0 mm
02:00 AM 49.1°F9.5°C 45.7°F7.6°C 88% 1.2 mph W1.9 kmh W 2.3 mph3.7 kmh 30.09 in1019.0 mb - 0.00 in0.0 mm 0.00 in0.0 mm
02:10 AM 48.7°F9.3°C 45.3°F7.4°C 88% 3.5 mph W5.6 kmh W 4.6 mph7.4 kmh 30.09 in1019.0 mb - 0.00 in0.0 mm 0.00 in0.0 mm
02:15 AM 48.6°F9.2°C 45.5°F7.5°C 89% 5.8 mph W9.3 kmh W 5.8 mph9.3 kmh 30.09 in1019.0 mb - 0.00 in0.0 mm 0.00 in0.0 mm
02:20 AM 48.6°F9.2°C 45.5°F7.5°C 89% 4.6 mph W7.4 kmh W 5.8 mph9.3 kmh 30.09 in1019.0 mb - 0.00 in0.0 mm 0.00 in0.0 mm
02:25 AM 48.6°F9.2°C 45.8°F7.7°C 90% 4.6 mph NW7.4 kmh NW 5.8 mph9.3 kmh 30.09 in1019.0 mb - 0.00 in0.0 mm 0.00 in0.0 mm
02:30 AM 48.6°F9.2°C 45.8°F7.7°C 90% 5.8 mph W9.3 kmh W 8.1 mph13.0 kmh 30.09 in1019.0 mb - 0.00 in0.0 mm 0.00 in0.0 mm
02:35 AM 48.6°F9.2°C 45.8°F7.7°C 90% 8.1 mph W13.0 kmh W 8.1 mph13.0 kmh 30.09 in1019.0 mb - 0.00 in0.0 mm 0.00 in0.0 mm
02:40 AM 48.4°F9.1°C 45.9°F7.7°C 91% 6.9 mph NW11.1 kmh NW 8.1 mph13.0 kmh 30.09 in1019.0 mb - 0.00 in0.0 mm 0.00 in0.0 mm
02:45 AM 48.4°F9.1°C 45.9°F7.7°C 91% 5.8 mph W9.3 kmh W 8.1 mph13.0 kmh 30.09 in1019.0 mb - 0.00 in0.0 mm 0.00 in0.0 mm
02:50 AM 48.4°F9.1°C 46.2°F7.9°C 92% 3.5 mph W5.6 kmh W 5.8 mph9.3 kmh 30.09 in1019.0 mb - 0.00 in0.0 mm 0.00 in0.0 mm
02:55 AM 48.6°F9.2°C 46.3°F7.9°C 92% 3.5 mph W5.6 kmh W 5.8 mph9.3 kmh 30.09 in1019.0 mb - 0.00 in0.0 mm 0.00 in0.0 mm
03:00 AM 48.6°F9.2°C 46.3°F7.9°C 92% 5.8 mph NW9.3 kmh NW 8.1 mph13.0 kmh 30.09 in1019.0 mb - 0.00 in0.0 mm 0.00 in0.0 mm
03:10 AM 48.7°F9.3°C 46.5°F8.1°C 92% 6.9 mph W11.1 kmh W 8.1 mph13.0 kmh 30.09 in1019.0 mb - 0.00 in0.0 mm 0.00 in0.0 mm
03:15 AM 48.6°F9.2°C 46.1°F7.8°C 91% 5.8 mph NW9.3 kmh NW 8.1 mph13.0 kmh 30.09 in1019.0 mb - 0.00 in0.0 mm 0.00 in0.0 mm
03:20 AM 48.4°F9.1°C 45.9°F7.7°C 91% 5.8 mph W9.3 kmh W 6.9 mph11.1 kmh 30.09 in1019.0 mb - 0.00 in0.0 mm 0.00 in0.0 mm
03:25 AM 48.4°F9.1°C 46.2°F7.9°C 92% 5.8 mph WNW9.3 kmh WNW 8.1 mph13.0 kmh 30.09 in1019.0 mb - 0.00 in0.0 mm 0.00 in0.0 mm
03:30 AM 48.4°F9.1°C 46.2°F7.9°C 92% 5.8 mph WSW9.3 kmh WSW 8.1 mph13.0 kmh 30.09 in1019.0 mb - 0.00 in0.0 mm 0.00 in0.0 mm
03:35 AM 48.2°F9.0°C 46.0°F7.8°C 92% 4.6 mph W7.4 kmh W 6.9 mph11.1 kmh 30.09 in1019.0 mb - 0.00 in0.0 mm 0.00 in0.0 mm
03:40 AM 48.0°F8.9°C 46.1°F7.8°C 93% 2.3 mph SW3.7 kmh SW 4.6 mph7.4 kmh 30.09 in1019.0 mb - 0.00 in0.0 mm 0.00 in0.0 mm
03:45 AM 48.0°F8.9°C 46.1°F7.8°C 93% 3.5 mph W5.6 kmh W 5.8 mph9.3 kmh 30.09 in1019.0 mb - 0.00 in0.0 mm 0.00 in0.0 mm
03:50 AM 47.8°F8.8°C 45.9°F7.7°C 93% 4.6 mph W7.4 kmh W 5.8 mph9.3 kmh 30.09 in1019.0 mb - 0.00 in0.0 mm 0.00 in0.0 mm
03:55 AM 47.8°F8.8°C 45.9°F7.7°C 93% 5.8 mph NW9.3 kmh NW 6.9 mph11.1 kmh 30.09 in1019.0 mb - 0.00 in0.0 mm 0.00 in0.0 mm
04:00 AM 47.7°F8.7°C 45.7°F7.6°C 93% 5.8 mph W9.3 kmh W 5.8 mph9.3 kmh 30.09 in1019.0 mb - 0.00 in0.0 mm 0.00 in0.0 mm
04:10 AM 47.7°F8.7°C 45.7°F7.6°C 93% 5.8 mph NW9.3 kmh NW 8.1 mph13.0 kmh 30.06 in1017.9 mb - 0.00 in0.0 mm 0.00 in0.0 mm
04:15 AM 47.7°F8.7°C 46.0°F7.8°C 94% 5.8 mph W9.3 kmh W 8.1 mph13.0 kmh 30.06 in1017.9 mb - 0.00 in0.0 mm 0.00 in0.0 mm
04:20 AM 47.5°F8.6°C 45.8°F7.7°C 94% 4.6 mph W7.4 kmh W 6.9 mph11.1 kmh 30.06 in1017.9 mb - 0.00 in0.0 mm 0.00 in0.0 mm
04:25 AM 47.5°F8.6°C 45.8°F7.7°C 94% 4.6 mph NW7.4 kmh NW 6.9 mph11.1 kmh 30.06 in1017.9 mb - 0.00 in0.0 mm 0.00 in0.0 mm
04:30 AM 47.5°F8.6°C 45.8°F7.7°C 94% 5.8 mph W9.3 kmh W 8.1 mph13.0 kmh 30.06 in1017.9 mb - 0.00 in0.0 mm 0.00 in0.0 mm
04:35 AM 47.5°F8.6°C 45.8°F7.7°C 94% 5.8 mph W9.3 kmh W 8.1 mph13.0 kmh 30.06 in1017.9 mb - 0.00 in0.0 mm 0.00 in0.0 mm
04:40 AM 47.5°F8.6°C 45.8°F7.7°C 94% 5.8 mph W9.3 kmh W 6.9 mph11.1 kmh 30.06 in1017.9 mb - 0.00 in0.0 mm 0.00 in0.0 mm
04:45 AM 47.3°F8.5°C 45.7°F7.6°C 94% 8.1 mph W13.0 kmh W 9.2 mph14.8 kmh 30.06 in1017.9 mb - 0.00 in0.0 mm 0.00 in0.0 mm
04:50 AM 47.1°F8.4°C 45.5°F7.5°C 94% 5.8 mph W9.3 kmh W 8.1 mph13.0 kmh 30.06 in1017.9 mb - 0.00 in0.0 mm 0.00 in0.0 mm
04:55 AM 47.1°F8.4°C 45.8°F7.7°C 95% 4.6 mph W7.4 kmh W 8.1 mph13.0 kmh 30.06 in1017.9 mb - 0.00 in0.0 mm 0.00 in0.0 mm
05:00 AM 47.1°F8.4°C 45.8°F7.7°C 95% 4.6 mph W7.4 kmh W 8.1 mph13.0 kmh 30.06 in1017.9 mb - 0.00 in0.0 mm 0.00 in0.0 mm
05:10 AM 47.1°F8.4°C 45.8°F7.7°C 95% 5.8 mph W9.3 kmh W 8.1 mph13.0 kmh 30.06 in1017.9 mb - 0.00 in0.0 mm 0.00 in0.0 mm
05:15 AM 47.1°F8.4°C 45.8°F7.7°C 95% 4.6 mph W7.4 kmh W 6.9 mph11.1 kmh 30.06 in1017.9 mb - 0.00 in0.0 mm 0.00 in0.0 mm
05:20 AM 47.3°F8.5°C 45.9°F7.7°C 95% 4.6 mph W7.4 kmh W 6.9 mph11.1 kmh 30.06 in1017.9 mb - 0.00 in0.0 mm 0.00 in0.0 mm
05:25 AM 47.1°F8.4°C 45.8°F7.7°C 95% 8.1 mph NW13.0 kmh NW 9.2 mph14.8 kmh 30.06 in1017.9 mb - 0.00 in0.0 mm 0.00 in0.0 mm
05:30 AM 47.1°F8.4°C 45.8°F7.7°C 95% 5.8 mph NW9.3 kmh NW 8.1 mph13.0 kmh 30.06 in1017.9 mb - 0.00 in0.0 mm 0.00 in0.0 mm
05:35 AM 47.1°F8.4°C 45.8°F7.7°C 95% 5.8 mph W9.3 kmh W 8.1 mph13.0 kmh 30.06 in1017.9 mb - 0.00 in0.0 mm 0.00 in0.0 mm
05:40 AM 47.0°F8.3°C 45.6°F7.6°C 95% 5.8 mph SW9.3 kmh SW 8.1 mph13.0 kmh 30.06 in1017.9 mb - 0.00 in0.0 mm 0.00 in0.0 mm
05:45 AM 47.1°F8.4°C 45.8°F7.7°C 95% 5.8 mph W9.3 kmh W 6.9 mph11.1 kmh 30.06 in1017.9 mb - 0.00 in0.0 mm 0.00 in0.0 mm
05:50 AM 47.1°F8.4°C 45.8°F7.7°C 95% 6.9 mph NW11.1 kmh NW 8.1 mph13.0 kmh 30.06 in1017.9 mb - 0.00 in0.0 mm 0.00 in0.0 mm
05:55 AM 47.1°F8.4°C 45.8°F7.7°C 95% 6.9 mph W11.1 kmh W 9.2 mph14.8 kmh 30.06 in1017.9 mb - 0.00 in0.0 mm 0.00 in0.0 mm
06:00 AM 47.1°F8.4°C 45.8°F7.7°C 95% 6.9 mph W11.1 kmh W 9.2 mph14.8 kmh 30.06 in1017.9 mb - 0.00 in0.0 mm 0.00 in0.0 mm
06:10 AM 46.8°F8.2°C 45.4°F7.4°C 95% 6.9 mph NW11.1 kmh NW 9.2 mph14.8 kmh 30.06 in1017.9 mb - 0.00 in0.0 mm 0.00 in0.0 mm
06:15 AM 46.8°F8.2°C 45.4°F7.4°C 95% 5.8 mph NW9.3 kmh NW 8.1 mph13.0 kmh 30.06 in1017.9 mb - 0.00 in0.0 mm 0.00 in0.0 mm
06:20 AM 46.8°F8.2°C 45.4°F7.4°C 95% 5.8 mph W9.3 kmh W 8.1 mph13.0 kmh 30.06 in1017.9 mb - 0.00 in0.0 mm 0.00 in0.0 mm
06:25 AM 46.8°F8.2°C 45.4°F7.4°C 95% 5.8 mph W9.3 kmh W 8.1 mph13.0 kmh 30.06 in1017.9 mb - 0.00 in0.0 mm 0.00 in0.0 mm
06:30 AM 46.9°F8.3°C 45.6°F7.6°C 95% 5.8 mph W9.3 kmh W 10.4 mph16.7 kmh 30.06 in1017.9 mb - 0.00 in0.0 mm 0.00 in0.0 mm
06:35 AM 46.9°F8.3°C 45.6°F7.6°C 95% 6.9 mph W11.1 kmh W 9.2 mph14.8 kmh 30.06 in1017.9 mb - 0.00 in0.0 mm 0.00 in0.0 mm
06:40 AM 46.9°F8.3°C 45.6°F7.6°C 95% 5.8 mph NW9.3 kmh NW 8.1 mph13.0 kmh 30.06 in1017.9 mb - 0.00 in0.0 mm 0.00 in0.0 mm
06:45 AM 46.8°F8.2°C 45.4°F7.4°C 95% 5.8 mph W9.3 kmh W 8.1 mph13.0 kmh 30.06 in1017.9 mb - 0.00 in0.0 mm 0.00 in0.0 mm
06:50 AM 46.6°F8.1°C 45.2°F7.3°C 95% 5.8 mph W9.3 kmh W 6.9 mph11.1 kmh 30.06 in1017.9 mb - 0.00 in0.0 mm 0.00 in0.0 mm
06:55 AM 46.6°F8.1°C 45.2°F7.3°C 95% 4.6 mph NW7.4 kmh NW 8.1 mph13.0 kmh 30.06 in1017.9 mb - 0.00 in0.0 mm 0.00 in0.0 mm
07:00 AM 46.6°F8.1°C 45.2°F7.3°C 95% 3.5 mph W5.6 kmh W 4.6 mph7.4 kmh 30.06 in1017.9 mb - 0.00 in0.0 mm 0.00 in0.0 mm
07:10 AM 46.2°F7.9°C 44.9°F7.2°C 95% 4.6 mph W7.4 kmh W 5.8 mph9.3 kmh 30.09 in1019.0 mb - 0.00 in0.0 mm 0.00 in0.0 mm
07:15 AM 46.2°F7.9°C 44.9°F7.2°C 95% 5.8 mph W9.3 kmh W 8.1 mph13.0 kmh 30.09 in1019.0 mb - 0.00 in0.0 mm 0.00 in0.0 mm
07:20 AM 46.0°F7.8°C 44.7°F7.1°C 95% 6.9 mph W11.1 kmh W 9.2 mph14.8 kmh 30.09 in1019.0 mb - 0.00 in0.0 mm 0.00 in0.0 mm
07:25 AM 46.0°F7.8°C 44.7°F7.1°C 95% 3.5 mph SW5.6 kmh SW 8.1 mph13.0 kmh 30.09 in1019.0 mb - 0.00 in0.0 mm 0.00 in0.0 mm
07:30 AM 45.9°F7.7°C 44.8°F7.1°C 96% 5.8 mph W9.3 kmh W 8.1 mph13.0 kmh 30.09 in1019.0 mb - 0.00 in0.0 mm 0.00 in0.0 mm
07:35 AM 46.0°F7.8°C 45.0°F7.2°C 96% 4.6 mph W7.4 kmh W 6.9 mph11.1 kmh 30.09 in1019.0 mb - 0.00 in0.0 mm 0.00 in0.0 mm
07:40 AM 46.0°F7.8°C 45.0°F7.2°C 96% 5.8 mph W9.3 kmh W 6.9 mph11.1 kmh 30.09 in1019.0 mb - 0.00 in0.0 mm 0.00 in0.0 mm
07:45 AM 46.0°F7.8°C 45.0°F7.2°C 96% 5.8 mph NW9.3 kmh NW 9.2 mph14.8 kmh 30.09 in1019.0 mb - 0.00 in0.0 mm 0.00 in0.0 mm
07:50 AM 46.0°F7.8°C 45.0°F7.2°C 96% 5.8 mph W9.3 kmh W 8.1 mph13.0 kmh 30.09 in1019.0 mb - 0.00 in0.0 mm 0.00 in0.0 mm
07:55 AM 46.0°F7.8°C 45.0°F7.2°C 96% 4.6 mph WSW7.4 kmh WSW 6.9 mph11.1 kmh 30.09 in1019.0 mb - 0.00 in0.0 mm 0.00 in0.0 mm
08:00 AM 46.2°F7.9°C 45.4°F7.4°C 97% 6.9 mph NW11.1 kmh NW 8.1 mph13.0 kmh 30.09 in1019.0 mb - 0.00 in0.0 mm 0.00 in0.0 mm
08:10 AM 47.3°F8.5°C 46.5°F8.1°C 97% 4.6 mph W7.4 kmh W 5.8 mph9.3 kmh 30.09 in1019.0 mb - 0.00 in0.0 mm 0.00 in0.0 mm
08:15 AM 47.8°F8.8°C 47.0°F8.3°C 97% 3.5 mph W5.6 kmh W 4.6 mph7.4 kmh 30.09 in1019.0 mb - 0.00 in0.0 mm 0.00 in0.0 mm
08:20 AM 48.4°F9.1°C 47.3°F8.5°C 96% 4.6 mph W7.4 kmh W 5.8 mph9.3 kmh 30.09 in1019.0 mb - 0.00 in0.0 mm 0.00 in0.0 mm
08:25 AM 49.1°F9.5°C 48.0°F8.9°C 96% 4.6 mph NW7.4 kmh NW 5.8 mph9.3 kmh 30.09 in1019.0 mb - 0.00 in0.0 mm 0.00 in0.0 mm
08:30 AM 49.6°F9.8°C 48.3°F9.1°C 95% 3.5 mph W5.6 kmh W 4.6 mph7.4 kmh 30.09 in1019.0 mb - 0.00 in0.0 mm 0.00 in0.0 mm
08:35 AM 50.2°F10.1°C 48.5°F9.2°C 94% 5.8 mph W9.3 kmh W 6.9 mph11.1 kmh 30.09 in1019.0 mb - 0.00 in0.0 mm 0.00 in0.0 mm
08:40 AM 50.7°F10.4°C 48.8°F9.3°C 93% 3.5 mph W5.6 kmh W 5.8 mph9.3 kmh 30.09 in1019.0 mb - 0.00 in0.0 mm 0.00 in0.0 mm
08:45 AM 51.4°F10.8°C 49.2°F9.6°C 92% 4.6 mph NW7.4 kmh NW 5.8 mph9.3 kmh 30.09 in1019.0 mb - 0.00 in0.0 mm 0.00 in0.0 mm
08:50 AM 51.8°F11.0°C 48.9°F9.4°C 90% 3.5 mph W5.6 kmh W 4.6 mph7.4 kmh 30.09 in1019.0 mb - 0.00 in0.0 mm 0.00 in0.0 mm
08:55 AM 52.5°F11.4°C 49.4°F9.7°C 89% 1.2 mph W1.9 kmh W 3.5 mph5.6 kmh 30.09 in1019.0 mb - 0.00 in0.0 mm 0.00 in0.0 mm
09:00 AM 53.2°F11.8°C 50.1°F10.1°C 89% 1.2 mph W1.9 kmh W 3.5 mph5.6 kmh 30.09 in1019.0 mb - 0.00 in0.0 mm 0.00 in0.0 mm
09:10 AM 55.0°F12.8°C 51.5°F10.8°C 88% 1.2 mph WSW1.9 kmh WSW 3.5 mph5.6 kmh 30.09 in1019.0 mb - 0.00 in0.0 mm 0.00 in0.0 mm
09:15 AM 55.9°F13.3°C 52.1°F11.2°C 87% 2.3 mph SW3.7 kmh SW 3.5 mph5.6 kmh 30.09 in1019.0 mb - 0.00 in0.0 mm 0.00 in0.0 mm
09:20 AM 56.8°F13.8°C 52.7°F11.5°C 86% 3.5 mph WSW5.6 kmh WSW 4.6 mph7.4 kmh 30.09 in1019.0 mb - 0.00 in0.0 mm 0.00 in0.0 mm
09:25 AM 57.9°F14.4°C 53.1°F11.7°C 84% 1.2 mph SW1.9 kmh SW 3.5 mph5.6 kmh 30.09 in1019.0 mb - 0.00 in0.0 mm 0.00 in0.0 mm
09:30 AM 58.8°F14.9°C 53.7°F12.1°C 83% 1.2 mph S1.9 kmh S 2.3 mph3.7 kmh 30.09 in1019.0 mb - 0.00 in0.0 mm 0.00 in0.0 mm
09:35 AM 59.7°F15.4°C 54.2°F12.3°C 82% 1.2 mph SW1.9 kmh SW 2.3 mph3.7 kmh 30.09 in1019.0 mb - 0.00 in0.0 mm 0.00 in0.0 mm
09:40 AM 60.6°F15.9°C 54.4°F12.4°C 80% 2.3 mph SW3.7 kmh SW 3.5 mph5.6 kmh 30.09 in1019.0 mb - 0.00 in0.0 mm 0.00 in0.0 mm
09:45 AM 62.0°F16.7°C 54.7°F12.6°C 77% 1.2 mph S1.9 kmh S 3.5 mph5.6 kmh 30.09 in1019.0 mb - 0.00 in0.0 mm 0.00 in0.0 mm
09:50 AM 62.9°F17.2°C 54.5°F12.5°C 74% 1.2 mph NE1.9 kmh NE 3.5 mph5.6 kmh 30.09 in1019.0 mb - 0.00 in0.0 mm 0.00 in0.0 mm
09:55 AM 63.7°F17.6°C 54.9°F12.7°C 73% 3.5 mph NW5.6 kmh NW 4.6 mph7.4 kmh 30.09 in1019.0 mb - 0.00 in0.0 mm 0.00 in0.0 mm
10:00 AM 64.6°F18.1°C 53.4°F11.9°C 67% 5.8 mph W9.3 kmh W 6.9 mph11.1 kmh 30.09 in1019.0 mb - 0.00 in0.0 mm 0.00 in0.0 mm
10:10 AM 65.6°F18.7°C 51.4°F10.8°C 60% 1.2 mph NW1.9 kmh NW 3.5 mph5.6 kmh 30.12 in1020.0 mb - 0.00 in0.0 mm 0.00 in0.0 mm
10:15 AM 65.8°F18.8°C 51.1°F10.6°C 59% 2.3 mph W3.7 kmh W 4.6 mph7.4 kmh 30.12 in1020.0 mb - 0.00 in0.0 mm 0.00 in0.0 mm
10:20 AM 66.6°F19.2°C 51.3°F10.7°C 58% 3.5 mph NW5.6 kmh NW 4.6 mph7.4 kmh 30.12 in1020.0 mb - 0.00 in0.0 mm 0.00 in0.0 mm
10:25 AM 67.3°F19.6°C 50.5°F10.3°C 55% 3.5 mph NW5.6 kmh NW 5.8 mph9.3 kmh 30.12 in1020.0 mb - 0.00 in0.0 mm 0.00 in0.0 mm
10:30 AM 67.6°F19.8°C 50.4°F10.2°C 54% 2.3 mph W3.7 kmh W 4.6 mph7.4 kmh 30.12 in1020.0 mb - 0.00 in0.0 mm 0.00 in0.0 mm
10:35 AM 68.0°F20.0°C 49.2°F9.6°C 51% 3.5 mph SW5.6 kmh SW 5.8 mph9.3 kmh 30.12 in1020.0 mb - 0.00 in0.0 mm 0.00 in0.0 mm
10:40 AM 68.5°F20.3°C 50.7°F10.4°C 53% 4.6 mph SW7.4 kmh SW 5.8 mph9.3 kmh 30.12 in1020.0 mb - 0.00 in0.0 mm 0.00 in0.0 mm
10:45 AM 68.9°F20.5°C 50.0°F10.0°C 51% 1.2 mph NW1.9 kmh NW 3.5 mph5.6 kmh 30.12 in1020.0 mb - 0.00 in0.0 mm 0.00 in0.0 mm
10:50 AM 69.4°F20.8°C 51.0°F10.6°C 52% 3.5 mph W5.6 kmh W 4.6 mph7.4 kmh 30.12 in1020.0 mb - 0.00 in0.0 mm 0.00 in0.0 mm
10:55 AM 70.0°F21.1°C 49.9°F9.9°C 49% 2.3 mph SW3.7 kmh SW 5.8 mph9.3 kmh 30.12 in1020.0 mb - 0.00 in0.0 mm 0.00 in0.0 mm
11:00 AM 70.2°F21.2°C 48.4°F9.1°C 46% 1.2 mph SW1.9 kmh SW 5.8 mph9.3 kmh 30.12 in1020.0 mb - 0.00 in0.0 mm 0.00 in0.0 mm
11:10 AM 70.9°F21.6°C 49.1°F9.5°C 46% 6.9 mph NW11.1 kmh NW 10.4 mph16.7 kmh 30.12 in1020.0 mb - 0.00 in0.0 mm 0.00 in0.0 mm
11:15 AM 71.1°F21.7°C 48.6°F9.2°C 45% 3.5 mph NW5.6 kmh NW 5.8 mph9.3 kmh 30.12 in1020.0 mb - 0.00 in0.0 mm 0.00 in0.0 mm
11:20 AM 71.4°F21.9°C 50.7°F10.4°C 48% 2.3 mph W3.7 kmh W 5.8 mph9.3 kmh 30.12 in1020.0 mb - 0.00 in0.0 mm 0.00 in0.0 mm
11:25 AM 72.3°F22.4°C 49.8°F9.9°C 45% 2.3 mph NW3.7 kmh NW 5.8 mph9.3 kmh 30.12 in1020.0 mb - 0.00 in0.0 mm 0.00 in0.0 mm
11:30 AM 72.7°F22.6°C 50.1°F10.1°C 45% 3.5 mph W5.6 kmh W 5.8 mph9.3 kmh 30.12 in1020.0 mb - 0.00 in0.0 mm 0.00 in0.0 mm
11:35 AM 73.2°F22.9°C 48.7°F9.3°C 42% 5.8 mph W9.3 kmh W 6.9 mph11.1 kmh 30.12 in1020.0 mb - 0.00 in0.0 mm 0.00 in0.0 mm
11:40 AM 72.9°F22.7°C 45.1°F7.3°C 37% 9.2 mph W14.8 kmh W 12.7 mph20.4 kmh 30.12 in1020.0 mb - 0.00 in0.0 mm 0.00 in0.0 mm
11:45 AM 72.5°F22.5°C 47.5°F8.6°C 41% 5.8 mph NW9.3 kmh NW 8.1 mph13.0 kmh 30.12 in1020.0 mb - 0.00 in0.0 mm 0.00 in0.0 mm
11:50 AM 72.7°F22.6°C 48.3°F9.1°C 42% 5.8 mph SW9.3 kmh SW 8.1 mph13.0 kmh 30.12 in1020.0 mb - 0.00 in0.0 mm 0.00 in0.0 mm
11:55 AM 72.9°F22.7°C 46.4°F8.0°C 39% 8.1 mph W13.0 kmh W 11.5 mph18.5 kmh 30.12 in1020.0 mb - 0.00 in0.0 mm 0.00 in0.0 mm
12:00 PM 72.9°F22.7°C 47.1°F8.4°C 40% 6.9 mph W11.1 kmh W 12.7 mph20.4 kmh 30.12 in1020.0 mb - 0.00 in0.0 mm 0.00 in0.0 mm
12:10 PM 73.0°F22.8°C 47.9°F8.8°C 41% 3.5 mph NW5.6 kmh NW 5.8 mph9.3 kmh 30.09 in1019.0 mb - 0.00 in0.0 mm 0.00 in0.0 mm
12:15 PM 73.4°F23.0°C 47.6°F8.7°C 40% 3.5 mph SW5.6 kmh SW 9.2 mph14.8 kmh 30.09 in1019.0 mb - 0.00 in0.0 mm 0.00 in0.0 mm
12:20 PM 73.4°F23.0°C 46.9°F8.3°C 39% 9.2 mph NW14.8 kmh NW 12.7 mph20.4 kmh 30.09 in1019.0 mb - 0.00 in0.0 mm 0.00 in0.0 mm
12:25 PM 73.6°F23.1°C 45.7°F7.6°C 37% 2.3 mph W3.7 kmh W 5.8 mph9.3 kmh 30.09 in1019.0 mb - 0.00 in0.0 mm 0.00 in0.0 mm
12:30 PM 73.9°F23.3°C 46.0°F7.8°C 37% 5.8 mph W9.3 kmh W 9.2 mph14.8 kmh 30.09 in1019.0 mb - 0.00 in0.0 mm 0.00 in0.0 mm
12:35 PM 74.5°F23.6°C 46.5°F8.1°C 37% 4.6 mph SW7.4 kmh SW 5.8 mph9.3 kmh 30.09 in1019.0 mb - 0.00 in0.0 mm 0.00 in0.0 mm
12:40 PM 74.7°F23.7°C 45.9°F7.7°C 36% 3.5 mph N5.6 kmh N 5.8 mph9.3 kmh 30.09 in1019.0 mb - 0.00 in0.0 mm 0.00 in0.0 mm
12:45 PM 74.8°F23.8°C 46.1°F7.8°C 36% 9.2 mph SW14.8 kmh SW 12.7 mph20.4 kmh 30.09 in1019.0 mb - 0.00 in0.0 mm 0.00 in0.0 mm
12:50 PM 74.8°F23.8°C 46.1°F7.8°C 36% 3.5 mph NW5.6 kmh NW 8.1 mph13.0 kmh 30.09 in1019.0 mb - 0.00 in0.0 mm 0.00 in0.0 mm
12:55 PM 75.0°F23.9°C 47.0°F8.3°C 37% 1.2 mph S1.9 kmh S 5.8 mph9.3 kmh 30.09 in1019.0 mb - 0.00 in0.0 mm 0.00 in0.0 mm
01:00 PM 75.2°F24.0°C 46.4°F8.0°C 36% 9.2 mph W14.8 kmh W 12.7 mph20.4 kmh 30.09 in1019.0 mb - 0.00 in0.0 mm 0.00 in0.0 mm
01:10 PM 75.4°F24.1°C 46.6°F8.1°C 36% 8.1 mph WSW13.0 kmh WSW 11.5 mph18.5 kmh 30.09 in1019.0 mb - 0.00 in0.0 mm 0.00 in0.0 mm
01:15 PM 75.7°F24.3°C 47.6°F8.7°C 37% 4.6 mph W7.4 kmh W 10.4 mph16.7 kmh 30.09 in1019.0 mb - 0.00 in0.0 mm 0.00 in0.0 mm
01:20 PM 76.1°F24.5°C 48.6°F9.2°C 38% 3.5 mph WSW5.6 kmh WSW 8.1 mph13.0 kmh 30.09 in1019.0 mb - 0.00 in0.0 mm 0.00 in0.0 mm
01:25 PM 76.4°F24.7°C 48.2°F9.0°C 37% 5.8 mph W9.3 kmh W 13.8 mph22.2 kmh 30.09 in1019.0 mb - 0.00 in0.0 mm 0.00 in0.0 mm
01:30 PM 76.5°F24.7°C 46.8°F8.2°C 35% 5.8 mph W9.3 kmh W 8.1 mph13.0 kmh 30.09 in1019.0 mb - 0.00 in0.0 mm 0.00 in0.0 mm
01:35 PM 76.6°F24.8°C 47.7°F8.7°C 36% 8.1 mph WNW13.0 kmh WNW 10.4 mph16.7 kmh 30.09 in1019.0 mb - 0.00 in0.0 mm 0.00 in0.0 mm
01:40 PM 76.8°F24.9°C 48.6°F9.2°C 37% 4.6 mph SW7.4 kmh SW 6.9 mph11.1 kmh 30.09 in1019.0 mb - 0.00 in0.0 mm 0.00 in0.0 mm
01:45 PM 77.0°F25.0°C 45.7°F7.6°C 33% 8.1 mph NE13.0 kmh NE 12.7 mph20.4 kmh 30.09 in1019.0 mb - 0.00 in0.0 mm 0.00 in0.0 mm
01:50 PM 77.2°F25.1°C 45.8°F7.7°C 33% 1.2 mph SW1.9 kmh SW 3.5 mph5.6 kmh 30.09 in1019.0 mb - 0.00 in0.0 mm 0.00 in0.0 mm
01:55 PM 77.7°F25.4°C 46.3°F7.9°C 33% 9.2 mph NW14.8 kmh NW 12.7 mph20.4 kmh 30.09 in1019.0 mb - 0.00 in0.0 mm 0.00 in0.0 mm
02:00 PM 77.7°F25.4°C 45.5°F7.5°C 32% 5.8 mph SW9.3 kmh SW 8.1 mph13.0 kmh 30.09 in1019.0 mb - 0.00 in0.0 mm 0.00 in0.0 mm
02:10 PM 78.1°F25.6°C 44.1°F6.7°C 30% 5.8 mph SW9.3 kmh SW 13.8 mph22.2 kmh 30.06 in1017.9 mb - 0.00 in0.0 mm 0.00 in0.0 mm
02:15 PM 77.7°F25.4°C 42.9°F6.1°C 29% 5.8 mph W9.3 kmh W 8.1 mph13.0 kmh 30.06 in1017.9 mb - 0.00 in0.0 mm 0.00 in0.0 mm
02:20 PM 78.1°F25.6°C 45.8°F7.7°C 32% 5.8 mph NW9.3 kmh NW 9.2 mph14.8 kmh 30.06 in1017.9 mb - 0.00 in0.0 mm 0.00 in0.0 mm
02:25 PM 78.1°F25.6°C 43.2°F6.2°C 29% 2.3 mph SE3.7 kmh SE 5.8 mph9.3 kmh 30.06 in1017.9 mb - 0.00 in0.0 mm 0.00 in0.0 mm
02:30 PM 78.4°F25.8°C 44.4°F6.9°C 30% 9.2 mph NW14.8 kmh NW 11.5 mph18.5 kmh 30.06 in1017.9 mb - 0.00 in0.0 mm 0.00 in0.0 mm
02:35 PM 78.4°F25.8°C 44.4°F6.9°C 30% 13.8 mph W22.2 kmh W 18.4 mph29.6 kmh 30.06 in1017.9 mb - 0.00 in0.0 mm 0.00 in0.0 mm
02:40 PM 78.1°F25.6°C 43.2°F6.2°C 29% 6.9 mph SW11.1 kmh SW 15.0 mph24.1 kmh 30.06 in1017.9 mb - 0.00 in0.0 mm 0.00 in0.0 mm
02:45 PM 77.7°F25.4°C 42.9°F6.1°C 29% 9.2 mph NW14.8 kmh NW 12.7 mph20.4 kmh 30.06 in1017.9 mb - 0.00 in0.0 mm 0.00 in0.0 mm
02:50 PM 77.7°F25.4°C 46.3°F7.9°C 33% 4.6 mph NW7.4 kmh NW 9.2 mph14.8 kmh 30.06 in1017.9 mb - 0.00 in0.0 mm 0.00 in0.0 mm
02:55 PM 78.1°F25.6°C 45.8°F7.7°C 32% 11.5 mph NW18.5 kmh NW 18.4 mph29.6 kmh 30.06 in1017.9 mb - 0.00 in0.0 mm 0.00 in0.0 mm
03:00 PM 78.1°F25.6°C 45.8°F7.7°C 32% 4.6 mph W7.4 kmh W 9.2 mph14.8 kmh 30.06 in1017.9 mb - 0.00 in0.0 mm 0.00 in0.0 mm
03:10 PM 78.3°F25.7°C 46.0°F7.8°C 32% 9.2 mph SW14.8 kmh SW 10.4 mph16.7 kmh 30.03 in1016.9 mb - 0.00 in0.0 mm 0.00 in0.0 mm
03:15 PM 78.3°F25.7°C 45.1°F7.3°C 31% 3.5 mph ESE5.6 kmh ESE 8.1 mph13.0 kmh 30.03 in1016.9 mb - 0.00 in0.0 mm 0.00 in0.0 mm
03:20 PM 78.4°F25.8°C 45.3°F7.4°C 31% 5.8 mph NW9.3 kmh NW 8.1 mph13.0 kmh 30.03 in1016.9 mb - 0.00 in0.0 mm 0.00 in0.0 mm
03:25 PM 78.4°F25.8°C 46.9°F8.3°C 33% 10.4 mph NW16.7 kmh NW 15.0 mph24.1 kmh 30.03 in1016.9 mb - 0.00 in0.0 mm 0.00 in0.0 mm
03:30 PM 78.3°F25.7°C 46.0°F7.8°C 32% 9.2 mph NW14.8 kmh NW 12.7 mph20.4 kmh 30.03 in1016.9 mb - 0.00 in0.0 mm 0.00 in0.0 mm
03:35 PM 78.1°F25.6°C 44.1°F6.7°C 30% 5.8 mph WSW9.3 kmh WSW 8.1 mph13.0 kmh 30.03 in1016.9 mb - 0.00 in0.0 mm 0.00 in0.0 mm
03:40 PM 78.1°F25.6°C 45.8°F7.7°C 32% 5.8 mph SW9.3 kmh SW 8.1 mph13.0 kmh 30.03 in1016.9 mb - 0.00 in0.0 mm 0.00 in0.0 mm
03:45 PM 78.1°F25.6°C 45.0°F7.2°C 31% 9.2 mph NW14.8 kmh NW 13.8 mph22.2 kmh 30.03 in1016.9 mb - 0.00 in0.0 mm 0.00 in0.0 mm
03:50 PM 78.1°F25.6°C 46.6°F8.1°C 33% 5.8 mph NNW9.3 kmh NNW 10.4 mph16.7 kmh 30.03 in1016.9 mb - 0.00 in0.0 mm 0.00 in0.0 mm
03:55 PM 77.7°F25.4°C 46.3°F7.9°C 33% 11.5 mph W18.5 kmh W 17.3 mph27.8 kmh 30.03 in1016.9 mb - 0.00 in0.0 mm 0.00 in0.0 mm
04:00 PM 77.6°F25.3°C 45.4°F7.4°C 32% 3.5 mph NW5.6 kmh NW 5.8 mph9.3 kmh 30.03 in1016.9 mb - 0.00 in0.0 mm 0.00 in0.0 mm
04:10 PM 77.7°F25.4°C 47.1°F8.4°C 34% 9.2 mph W14.8 kmh W 12.7 mph20.4 kmh 30.03 in1016.9 mb - 0.00 in0.0 mm 0.00 in0.0 mm
04:15 PM 78.1°F25.6°C 47.4°F8.6°C 34% 6.9 mph NW11.1 kmh NW 9.2 mph14.8 kmh 30.03 in1016.9 mb - 0.00 in0.0 mm 0.00 in0.0 mm
04:20 PM 78.1°F25.6°C 47.4°F8.6°C 34% 5.8 mph WNW9.3 kmh WNW 15.0 mph24.1 kmh 30.03 in1016.9 mb - 0.00 in0.0 mm 0.00 in0.0 mm
04:25 PM 78.1°F25.6°C 47.4°F8.6°C 34% 3.5 mph NW5.6 kmh NW 4.6 mph7.4 kmh 30.03 in1016.9 mb - 0.00 in0.0 mm 0.00 in0.0 mm
04:30 PM 78.3°F25.7°C 48.4°F9.1°C 35% 4.6 mph W7.4 kmh W 10.4 mph16.7 kmh 30.03 in1016.9 mb - 0.00 in0.0 mm 0.00 in0.0 mm
04:35 PM 78.6°F25.9°C 48.7°F9.3°C 35% 4.6 mph NW7.4 kmh NW 8.1 mph13.0 kmh 30.03 in1016.9 mb - 0.00 in0.0 mm 0.00 in0.0 mm
04:40 PM 78.6°F25.9°C 47.1°F8.4°C 33% 8.1 mph W13.0 kmh W 13.8 mph22.2 kmh 30.03 in1016.9 mb - 0.00 in0.0 mm 0.00 in0.0 mm
04:45 PM 78.4°F25.8°C 47.7°F8.7°C 34% 2.3 mph S3.7 kmh S 5.8 mph9.3 kmh 30.03 in1016.9 mb - 0.00 in0.0 mm 0.00 in0.0 mm
04:50 PM 78.4°F25.8°C 46.9°F8.3°C 33% 6.9 mph N11.1 kmh N 9.2 mph14.8 kmh 30.03 in1016.9 mb - 0.00 in0.0 mm 0.00 in0.0 mm
04:55 PM 78.1°F25.6°C 46.6°F8.1°C 33% 6.9 mph NW11.1 kmh NW 11.5 mph18.5 kmh 30.03 in1016.9 mb - 0.00 in0.0 mm 0.00 in0.0 mm
05:00 PM 77.5°F25.3°C 46.9°F8.3°C 34% 3.5 mph W5.6 kmh W 4.6 mph7.4 kmh 30.03 in1016.9 mb - 0.00 in0.0 mm 0.00 in0.0 mm
05:10 PM 76.3°F24.6°C 45.1°F7.3°C 33% 11.5 mph NW18.5 kmh NW 15.0 mph24.1 kmh 30.00 in1015.9 mb - 0.00 in0.0 mm 0.00 in0.0 mm
05:15 PM 76.1°F24.5°C 44.9°F7.2°C 33% 3.5 mph NW5.6 kmh NW 5.8 mph9.3 kmh 30.00 in1015.9 mb - 0.00 in0.0 mm 0.00 in0.0 mm
05:20 PM 75.9°F24.4°C 45.5°F7.5°C 34% 1.2 mph SW1.9 kmh SW 4.6 mph7.4 kmh 30.00 in1015.9 mb - 0.00 in0.0 mm 0.00 in0.0 mm
05:25 PM 75.7°F24.3°C 45.4°F7.4°C 34% 3.5 mph NW5.6 kmh NW 5.8 mph9.3 kmh 30.00 in1015.9 mb - 0.00 in0.0 mm 0.00 in0.0 mm
05:30 PM 75.6°F24.2°C 45.2°F7.3°C 34% 3.5 mph SW5.6 kmh SW 8.1 mph13.0 kmh 30.00 in1015.9 mb - 0.00 in0.0 mm 0.00 in0.0 mm
05:35 PM 75.6°F24.2°C 45.2°F7.3°C 34% 2.3 mph SW3.7 kmh SW 4.6 mph7.4 kmh 30.00 in1015.9 mb - 0.00 in0.0 mm 0.00 in0.0 mm
05:40 PM 75.4°F24.1°C 45.8°F7.7°C 35% 8.1 mph WNW13.0 kmh WNW 12.7 mph20.4 kmh 30.00 in1015.9 mb - 0.00 in0.0 mm 0.00 in0.0 mm
05:45 PM 75.0°F23.9°C 45.5°F7.5°C 35% 3.5 mph SW5.6 kmh SW 9.2 mph14.8 kmh 30.00 in1015.9 mb - 0.00 in0.0 mm 0.00 in0.0 mm
05:50 PM 74.9°F23.8°C 46.1°F7.8°C 36% 5.8 mph NW9.3 kmh NW 6.9 mph11.1 kmh 30.00 in1015.9 mb - 0.00 in0.0 mm 0.00 in0.0 mm
05:55 PM 74.8°F23.8°C 46.1°F7.8°C 36% 3.5 mph W5.6 kmh W 4.6 mph7.4 kmh 30.00 in1015.9 mb - 0.00 in0.0 mm 0.00 in0.0 mm
06:00 PM 74.5°F23.6°C 45.8°F7.7°C 36% Calm Calm 1.2 mph1.9 kmh 30.00 in1015.9 mb - 0.00 in0.0 mm 0.00 in0.0 mm
06:10 PM 74.1°F23.4°C 46.2°F7.9°C 37% 1.2 mph NW1.9 kmh NW 3.5 mph5.6 kmh 30.00 in1015.9 mb - 0.00 in0.0 mm 0.00 in0.0 mm
06:15 PM 73.8°F23.2°C 45.9°F7.7°C 37% 3.5 mph W5.6 kmh W 5.8 mph9.3 kmh 30.00 in1015.9 mb - 0.00 in0.0 mm 0.00 in0.0 mm
06:20 PM 73.4°F23.0°C 45.6°F7.6°C 37% 2.3 mph ENE3.7 kmh ENE 5.8 mph9.3 kmh 30.00 in1015.9 mb - 0.00 in0.0 mm 0.00 in0.0 mm
06:25 PM 73.4°F23.0°C 45.5°F7.5°C 37% 1.2 mph NW1.9 kmh NW 3.5 mph5.6 kmh 30.00 in1015.9 mb - 0.00 in0.0 mm 0.00 in0.0 mm
06:30 PM 73.2°F22.9°C 45.4°F7.4°C 37% 1.2 mph NW1.9 kmh NW 2.3 mph3.7 kmh 30.00 in1015.9 mb - 0.00 in0.0 mm 0.00 in0.0 mm
06:35 PM 72.9°F22.7°C 45.1°F7.3°C 37% 1.2 mph NW1.9 kmh NW 4.6 mph7.4 kmh 30.00 in1015.9 mb - 0.00 in0.0 mm 0.00 in0.0 mm
06:40 PM 72.7°F22.6°C 45.6°F7.6°C 38% 2.3 mph W3.7 kmh W 5.8 mph9.3 kmh 30.00 in1015.9 mb - 0.00 in0.0 mm 0.00 in0.0 mm
06:45 PM 72.3°F22.4°C 46.0°F7.8°C 39% 1.2 mph NW1.9 kmh NW 3.5 mph5.6 kmh 30.00 in1015.9 mb - 0.00 in0.0 mm 0.00 in0.0 mm
06:50 PM 72.1°F22.3°C 46.5°F8.1°C 40% Calm Calm 1.2 mph1.9 kmh 30.00 in1015.9 mb - 0.00 in0.0 mm 0.00 in0.0 mm
06:55 PM 71.8°F22.1°C 46.8°F8.2°C 41% Calm Calm 1.2 mph1.9 kmh 30.00 in1015.9 mb - 0.00 in0.0 mm 0.00 in0.0 mm
07:00 PM 71.4°F21.9°C 47.1°F8.4°C 42% Calm Calm 1.2 mph1.9 kmh 30.00 in1015.9 mb - 0.00 in0.0 mm 0.00 in0.0 mm
07:10 PM 70.5°F21.4°C 46.3°F7.9°C 42% Calm Calm -- 30.00 in1015.9 mb - 0.00 in0.0 mm 0.00 in0.0 mm
07:15 PM 70.0°F21.1°C 46.5°F8.1°C 43% Calm Calm 1.2 mph1.9 kmh 30.00 in1015.9 mb - 0.00 in0.0 mm 0.00 in0.0 mm
07:20 PM 69.6°F20.9°C 46.7°F8.2°C 44% Calm Calm 1.2 mph1.9 kmh 30.00 in1015.9 mb - 0.00 in0.0 mm 0.00 in0.0 mm
07:25 PM 69.1°F20.6°C 46.9°F8.3°C 45% 1.2 mph NW1.9 kmh NW 1.2 mph1.9 kmh 30.00 in1015.9 mb - 0.00 in0.0 mm 0.00 in0.0 mm
07:30 PM 68.7°F20.4°C 47.1°F8.4°C 46% 1.2 mph W1.9 kmh W 2.3 mph3.7 kmh 30.00 in1015.9 mb - 0.00 in0.0 mm 0.00 in0.0 mm
07:35 PM 68.2°F20.1°C 46.6°F8.1°C 46% 3.5 mph NW5.6 kmh NW 4.6 mph7.4 kmh 30.00 in1015.9 mb - 0.00 in0.0 mm 0.00 in0.0 mm
07:40 PM 68.0°F20.0°C 47.0°F8.3°C 47% 2.3 mph W3.7 kmh W 3.5 mph5.6 kmh 30.00 in1015.9 mb - 0.00 in0.0 mm 0.00 in0.0 mm
07:45 PM 67.8°F19.9°C 47.4°F8.6°C 48% 1.2 mph WNW1.9 kmh WNW 3.5 mph5.6 kmh 30.00 in1015.9 mb - 0.00 in0.0 mm 0.00 in0.0 mm
07:50 PM 67.8°F19.9°C 48.0°F8.9°C 49% 3.5 mph W5.6 kmh W 4.6 mph7.4 kmh 30.00 in1015.9 mb - 0.00 in0.0 mm 0.00 in0.0 mm
07:55 PM 67.5°F19.7°C 47.6°F8.7°C 49% 3.5 mph NW5.6 kmh NW 4.6 mph7.4 kmh 30.00 in1015.9 mb - 0.00 in0.0 mm 0.00 in0.0 mm
08:00 PM 67.1°F19.5°C 47.3°F8.5°C 49% 3.5 mph NW5.6 kmh NW 3.5 mph5.6 kmh 30.00 in1015.9 mb - 0.00 in0.0 mm 0.00 in0.0 mm
08:10 PM 66.0°F18.9°C 47.9°F8.8°C 52% 2.3 mph W3.7 kmh W 3.5 mph5.6 kmh 30.00 in1015.9 mb - 0.00 in0.0 mm 0.00 in0.0 mm
08:15 PM 65.5°F18.6°C 48.4°F9.1°C 54% 3.5 mph NW5.6 kmh NW 3.5 mph5.6 kmh 30.00 in1015.9 mb - 0.00 in0.0 mm 0.00 in0.0 mm
08:20 PM 64.9°F18.3°C 48.4°F9.1°C 55% 3.5 mph W5.6 kmh W 3.5 mph5.6 kmh 30.00 in1015.9 mb - 0.00 in0.0 mm 0.00 in0.0 mm
08:25 PM 64.2°F17.9°C 47.7°F8.7°C 55% 1.2 mph NW1.9 kmh NW 3.5 mph5.6 kmh 30.00 in1015.9 mb - 0.00 in0.0 mm 0.00 in0.0 mm
08:30 PM 63.7°F17.6°C 47.7°F8.7°C 56% 3.5 mph W5.6 kmh W 3.5 mph5.6 kmh 30.00 in1015.9 mb - 0.00 in0.0 mm 0.00 in0.0 mm
08:35 PM 63.2°F17.3°C 47.2°F8.4°C 56% 2.3 mph NW3.7 kmh NW 3.5 mph5.6 kmh 30.00 in1015.9 mb - 0.00 in0.0 mm 0.00 in0.0 mm
08:40 PM 62.8°F17.1°C 47.3°F8.5°C 57% 1.2 mph NW1.9 kmh NW 3.5 mph5.6 kmh 30.00 in1015.9 mb - 0.00 in0.0 mm 0.00 in0.0 mm
08:45 PM 62.4°F16.9°C 47.9°F8.8°C 59% 3.5 mph W5.6 kmh W 4.6 mph7.4 kmh 30.00 in1015.9 mb - 0.00 in0.0 mm 0.00 in0.0 mm
08:50 PM 62.1°F16.7°C 48.0°F8.9°C 60% 3.5 mph NNW5.6 kmh NNW 3.5 mph5.6 kmh 30.00 in1015.9 mb - 0.00 in0.0 mm 0.00 in0.0 mm
08:55 PM 61.9°F16.6°C 48.3°F9.1°C 61% 2.3 mph W3.7 kmh W 3.5 mph5.6 kmh 30.00 in1015.9 mb - 0.00 in0.0 mm 0.00 in0.0 mm
09:00 PM 61.5°F16.4°C 48.4°F9.1°C 62% 3.5 mph W5.6 kmh W 3.5 mph5.6 kmh 30.00 in1015.9 mb - 0.00 in0.0 mm 0.00 in0.0 mm
09:10 PM 61.2°F16.2°C 48.0°F8.9°C 62% 2.3 mph NW3.7 kmh NW 3.5 mph5.6 kmh 30.03 in1016.9 mb - 0.00 in0.0 mm 0.00 in0.0 mm
09:15 PM 61.0°F16.1°C 48.3°F9.1°C 63% 2.3 mph W3.7 kmh W 3.5 mph5.6 kmh 30.03 in1016.9 mb - 0.00 in0.0 mm 0.00 in0.0 mm
09:20 PM 60.8°F16.0°C 48.1°F8.9°C 63% 3.5 mph W5.6 kmh W 4.6 mph7.4 kmh 30.03 in1016.9 mb - 0.00 in0.0 mm 0.00 in0.0 mm
09:25 PM 60.6°F15.9°C 48.4°F9.1°C 64% 3.5 mph W5.6 kmh W 4.6 mph7.4 kmh 30.03 in1016.9 mb - 0.00 in0.0 mm 0.00 in0.0 mm
09:30 PM 60.4°F15.8°C 48.6°F9.2°C 65% 3.5 mph NW5.6 kmh NW 4.6 mph7.4 kmh 30.03 in1016.9 mb - 0.00 in0.0 mm 0.00 in0.0 mm
09:35 PM 60.1°F15.6°C 48.3°F9.1°C 65% 2.3 mph W3.7 kmh W 4.6 mph7.4 kmh 30.03 in1016.9 mb - 0.00 in0.0 mm 0.00 in0.0 mm
09:40 PM 60.1°F15.6°C 48.3°F9.1°C 65% 3.5 mph NW5.6 kmh NW 3.5 mph5.6 kmh 30.03 in1016.9 mb - 0.00 in0.0 mm 0.00 in0.0 mm
09:45 PM 59.9°F15.5°C 48.5°F9.2°C 66% 3.5 mph W5.6 kmh W 4.6 mph7.4 kmh 30.03 in1016.9 mb - 0.00 in0.0 mm 0.00 in0.0 mm
09:50 PM 59.5°F15.3°C 48.2°F9.0°C 66% 3.5 mph WNW5.6 kmh WNW 4.6 mph7.4 kmh 30.03 in1016.9 mb - 0.00 in0.0 mm 0.00 in0.0 mm
09:55 PM 59.3°F15.2°C 48.0°F8.9°C 66% 3.5 mph W5.6 kmh W 4.6 mph7.4 kmh 30.03 in1016.9 mb - 0.00 in0.0 mm 0.00 in0.0 mm
10:00 PM 59.0°F15.0°C 48.1°F8.9°C 67% 3.5 mph W5.6 kmh W 5.8 mph9.3 kmh 30.03 in1016.9 mb - 0.00 in0.0 mm 0.00 in0.0 mm
10:10 PM 58.6°F14.8°C 48.5°F9.2°C 69% 3.5 mph W5.6 kmh W 5.8 mph9.3 kmh 30.06 in1017.9 mb - 0.00 in0.0 mm 0.00 in0.0 mm
10:15 PM 58.6°F14.8°C 48.5°F9.2°C 69% 3.5 mph NW5.6 kmh NW 4.6 mph7.4 kmh 30.06 in1017.9 mb - 0.00 in0.0 mm 0.00 in0.0 mm
10:20 PM 58.5°F14.7°C 48.3°F9.1°C 69% 3.5 mph W5.6 kmh W 4.6 mph7.4 kmh 30.06 in1017.9 mb - 0.00 in0.0 mm 0.00 in0.0 mm
10:25 PM 58.3°F14.6°C 48.2°F9.0°C 69% 3.5 mph NW5.6 kmh NW 3.5 mph5.6 kmh 30.06 in1017.9 mb - 0.00 in0.0 mm 0.00 in0.0 mm
10:30 PM 58.1°F14.5°C 48.4°F9.1°C 70% 2.3 mph W3.7 kmh W 5.8 mph9.3 kmh 30.06 in1017.9 mb - 0.00 in0.0 mm 0.00 in0.0 mm
10:35 PM 58.1°F14.5°C 48.4°F9.1°C 70% 2.3 mph W3.7 kmh W 4.6 mph7.4 kmh 30.06 in1017.9 mb - 0.00 in0.0 mm 0.00 in0.0 mm
10:40 PM 57.9°F14.4°C 48.2°F9.0°C 70% 2.3 mph W3.7 kmh W 3.5 mph5.6 kmh 30.06 in1017.9 mb - 0.00 in0.0 mm 0.00 in0.0 mm
10:45 PM 57.7°F14.3°C 48.4°F9.1°C 71% 2.3 mph W3.7 kmh W 3.5 mph5.6 kmh 30.06 in1017.9 mb - 0.00 in0.0 mm 0.00 in0.0 mm
10:50 PM 57.6°F14.2°C 48.2°F9.0°C 71% 2.3 mph W3.7 kmh W 3.5 mph5.6 kmh 30.06 in1017.9 mb - 0.00 in0.0 mm 0.00 in0.0 mm
10:55 PM 57.4°F14.1°C 48.4°F9.1°C 72% 3.5 mph W5.6 kmh W 4.6 mph7.4 kmh 30.06 in1017.9 mb - 0.00 in0.0 mm 0.00 in0.0 mm
11:00 PM 57.2°F14.0°C 48.3°F9.1°C 72% 3.5 mph NW5.6 kmh NW 5.8 mph9.3 kmh 30.06 in1017.9 mb - 0.00 in0.0 mm 0.00 in0.0 mm
11:10 PM 57.0°F13.9°C 48.8°F9.3°C 74% 3.5 mph NW5.6 kmh NW 4.6 mph7.4 kmh 30.06 in1017.9 mb - 0.00 in0.0 mm 0.00 in0.0 mm
11:15 PM 56.8°F13.8°C 48.6°F9.2°C 74% 3.5 mph W5.6 kmh W 3.5 mph5.6 kmh 30.06 in1017.9 mb - 0.00 in0.0 mm 0.00 in0.0 mm
11:20 PM 56.8°F13.8°C 48.6°F9.2°C 74% 3.5 mph NW5.6 kmh NW 3.5 mph5.6 kmh 30.06 in1017.9 mb - 0.00 in0.0 mm 0.00 in0.0 mm
11:25 PM 56.7°F13.7°C 48.8°F9.3°C 75% 3.5 mph W5.6 kmh W 5.8 mph9.3 kmh 30.06 in1017.9 mb - 0.00 in0.0 mm 0.00 in0.0 mm
11:30 PM 56.7°F13.7°C 48.8°F9.3°C 75% 3.5 mph W5.6 kmh W 5.8 mph9.3 kmh 30.06 in1017.9 mb - 0.00 in0.0 mm 0.00 in0.0 mm
11:35 PM 56.7°F13.7°C 48.8°F9.3°C 75% 3.5 mph W5.6 kmh W 4.6 mph7.4 kmh 30.06 in1017.9 mb - 0.00 in0.0 mm 0.00 in0.0 mm
11:40 PM 56.5°F13.6°C 48.6°F9.2°C 75% 2.3 mph NW3.7 kmh NW 3.5 mph5.6 kmh 30.06 in1017.9 mb - 0.00 in0.0 mm 0.00 in0.0 mm
11:45 PM 56.5°F13.6°C 48.6°F9.2°C 75% 2.3 mph NW3.7 kmh NW 5.8 mph9.3 kmh 30.06 in1017.9 mb - 0.00 in0.0 mm 0.00 in0.0 mm
11:50 PM 56.7°F13.7°C 48.8°F9.3°C 75% 1.2 mph W1.9 kmh W 2.3 mph3.7 kmh 30.06 in1017.9 mb - 0.00 in0.0 mm 0.00 in0.0 mm
11:55 PM 56.5°F13.6°C 48.7°F9.3°C 75% Calm Calm 1.2 mph1.9 kmh 30.06 in1017.9 mb - 0.00 in0.0 mm 0.00 in0.0 mm